Time;durP1;ratioP1;P1;durP2;ratioP2;P2;SDS_P1;SDS_P2;PMS_P1;PMS_P2;Temp;Humidity;BMP_temperature;BMP_pressure;BME280_temperature;BME280_humidity;BME280_pressure;Samples;Min_cycle;Max_cycle;Signal;HPM_P1;HPM_P2
2023/01/11 00:01:51;;;;;;;6.95;1.95;;;5.20;99.90;;;;;;5051122;28;20025;-58
2023/01/11 00:04:17;;;;;;;9.45;3.15;;;5.20;99.90;;;;;;5051296;28;20611;-60
2023/01/11 00:06:44;;;;;;;4.90;3.03;;;5.20;99.90;;;;;;5051166;28;20025;-60
2023/01/11 00:09:09;;;;;;;4.45;2.58;;;5.20;99.90;;;;;;5051521;28;20021;-59
2023/01/11 00:11:35;;;;;;;6.00;2.90;;;5.30;99.90;;;;;;5051971;28;20021;-56
2023/01/11 00:14:00;;;;;;;4.22;2.72;;;5.30;99.90;;;;;;5051564;28;20155;-58
2023/01/11 00:16:26;;;;;;;6.43;3.13;;;5.30;99.90;;;;;;5051165;28;20559;-58
2023/01/11 00:18:51;;;;;;;4.95;2.88;;;5.40;99.90;;;;;;5033437;28;20108;-60
2023/01/11 00:21:17;;;;;;;6.00;2.83;;;5.40;99.90;;;;;;5050738;28;20036;-60
2023/01/11 00:23:43;;;;;;;5.25;2.38;;;5.50;99.90;;;;;;5050762;28;20114;-60
2023/01/11 00:26:11;;;;;;;7.03;3.53;;;5.50;99.90;;;;;;5049799;28;20056;-59
2023/01/11 00:28:37;;;;;;;6.75;2.88;;;5.50;99.90;;;;;;5050499;28;20032;-58
2023/01/11 00:31:03;;;;;;;5.30;2.85;;;5.50;99.90;;;;;;5049457;28;20017;-59
2023/01/11 00:33:28;;;;;;;6.18;3.47;;;5.60;99.90;;;;;;5050210;28;20048;-60
2023/01/11 00:35:54;;;;;;;6.68;3.45;;;5.60;99.90;;;;;;5050234;28;20028;-59
2023/01/11 00:38:42;;;;;;;7.70;2.65;;;5.60;99.90;;;;;;5050423;28;20021;-60
2023/01/11 00:49:22;;;;;;;8.57;3.03;;;5.70;99.90;;;;;;5049247;28;20036;-60
2023/01/11 00:51:47;;;;;;;5.30;3.15;;;5.70;99.90;;;;;;5049785;28;20016;-61
2023/01/11 00:54:13;;;;;;;5.70;3.13;;;5.80;99.90;;;;;;5049739;28;20040;-61
2023/01/11 00:56:39;;;;;;;6.30;3.05;;;5.80;99.90;;;;;;5043774;28;20025;-60
2023/01/11 00:59:04;;;;;;;3.72;2.55;;;5.80;99.90;;;;;;5050194;28;20029;-61
2023/01/11 01:01:31;;;;;;;6.25;3.03;;;5.80;99.90;;;;;;5049790;28;20021;-59
2023/01/11 01:03:56;;;;;;;8.18;3.72;;;5.90;99.90;;;;;;5049876;28;20029;-60
2023/01/11 01:06:22;;;;;;;7.47;2.65;;;5.80;99.90;;;;;;5031803;28;20059;-59
2023/01/11 01:08:48;;;;;;;5.15;3.10;;;5.80;99.90;;;;;;5032209;28;20025;-61
2023/01/11 01:11:13;;;;;;;8.82;3.17;;;5.90;99.90;;;;;;5049946;28;20452;-60
2023/01/11 01:16:23;;;;;;;6.00;3.25;;;5.90;99.90;;;;;;5049502;28;21608;-61
2023/01/11 01:18:48;;;;;;;4.88;3.28;;;5.80;99.90;;;;;;5050560;28;20021;-61
2023/01/11 01:21:14;;;;;;;11.95;2.88;;;5.80;99.90;;;;;;5049342;28;20108;-58
2023/01/11 01:23:39;;;;;;;5.75;3.10;;;5.80;99.90;;;;;;5049949;28;20087;-61
2023/01/11 01:26:05;;;;;;;4.45;2.38;;;5.80;99.90;;;;;;5049498;28;20024;-60
2023/01/11 01:28:32;;;;;;;4.93;2.90;;;5.70;99.90;;;;;;5049905;28;20386;-61
2023/01/11 01:30:57;;;;;;;4.65;2.53;;;5.80;99.90;;;;;;5043899;28;20448;-61
2023/01/11 01:33:23;;;;;;;3.85;2.58;;;5.80;99.90;;;;;;5049513;28;20028;-59
2023/01/11 01:35:49;;;;;;;4.20;3.10;;;5.80;99.90;;;;;;5031052;28;20107;-61
2023/01/11 01:38:17;;;;;;;5.00;3.08;;;5.70;99.90;;;;;;5048982;28;20021;-60
2023/01/11 01:40:45;;;;;;;3.25;2.20;;;5.80;99.90;;;;;;5040942;28;20029;-60
2023/01/11 01:43:12;;;;;;;3.97;2.20;;;5.80;99.90;;;;;;5049231;28;20025;-60
2023/01/11 01:45:40;;;;;;;3.70;2.42;;;5.80;99.90;;;;;;5048453;28;20075;-60
2023/01/11 01:48:07;;;;;;;7.78;2.90;;;5.80;99.90;;;;;;5049167;28;20431;-59
2023/01/11 01:50:36;;;;;;;5.13;2.42;;;5.80;99.90;;;;;;5031142;28;20021;-61
2023/01/11 01:53:11;;;;;;;3.00;2.10;;;5.80;99.90;;;;;;5048879;28;20396;-60
2023/01/11 01:55:41;;;;;;;6.25;2.58;;;5.80;99.90;;;;;;5048905;28;20812;-59
2023/01/11 01:58:12;;;;;;;7.13;2.67;;;5.90;99.90;;;;;;5048622;28;20098;-59
2023/01/11 02:00:39;;;;;;;4.65;2.72;;;5.90;99.90;;;;;;5028665;28;20080;-60
2023/01/11 02:03:07;;;;;;;2.55;2.35;;;5.90;99.90;;;;;;5028587;28;20029;-60
2023/01/11 02:05:32;;;;;;;4.60;2.75;;;5.90;99.90;;;;;;5048102;28;20543;-58
2023/01/11 02:08:01;;;;;;;3.92;2.40;;;5.90;99.90;;;;;;5049194;28;20021;-59
2023/01/11 02:10:27;;;;;;;4.85;2.67;;;5.90;99.90;;;;;;5049080;28;20024;-58
2023/01/11 02:13:00;;;;;;;4.85;2.22;;;5.90;99.90;;;;;;5031156;28;20024;-60
2023/01/11 02:15:27;;;;;;;3.83;2.13;;;6.00;99.90;;;;;;5047899;28;20511;-57
2023/01/11 02:17:53;;;;;;;2.38;2.17;;;6.00;99.90;;;;;;5049107;28;20036;-60
2023/01/11 02:20:41;;;;;;;4.47;2.40;;;6.00;99.90;;;;;;5048963;28;20023;-59
2023/01/11 02:23:47;;;;;;;4.28;2.35;;;6.00;99.90;;;;;;5028814;28;20053;-58
2023/01/11 02:26:30;;;;;;;4.38;2.20;;;6.00;99.90;;;;;;5045119;28;20428;-60
2023/01/11 02:29:23;;;;;;;6.18;2.67;;;6.10;99.90;;;;;;5047178;28;20511;-60
2023/01/11 02:31:59;;;;;;;3.90;2.25;;;6.10;99.90;;;;;;5048040;28;20107;-59
2023/01/11 02:34:52;;;;;;;1.92;1.73;;;6.10;99.90;;;;;;5048696;28;20113;-59
2023/01/11 02:37:39;;;;;;;5.85;2.25;;;6.10;99.90;;;;;;5046347;28;20070;-61
2023/01/11 02:40:20;;;;;;;3.75;2.20;;;6.10;99.90;;;;;;5046135;28;20110;-59
2023/01/11 02:46:12;;;;;;;3.15;2.17;;;6.20;99.90;;;;;;5048016;28;20430;-60
2023/01/11 02:48:48;;;;;;;4.05;1.70;;;6.20;99.90;;;;;;5047162;28;20278;-59
2023/01/11 02:51:32;;;;;;;2.50;1.75;;;6.30;99.90;;;;;;5044490;28;20021;-60
2023/01/11 02:54:04;;;;;;;3.85;2.03;;;6.30;99.90;;;;;;5045293;28;20103;-58
2023/01/11 02:56:36;;;;;;;3.42;1.88;;;6.30;99.90;;;;;;5051596;28;20055;-60
2023/01/11 02:59:03;;;;;;;1.92;1.48;;;6.40;99.90;;;;;;5052221;28;20029;-54
2023/01/11 03:01:29;;;;;;;3.00;1.48;;;6.40;99.90;;;;;;5051779;28;20037;-60
2023/01/11 03:03:55;;;;;;;1.80;1.55;;;6.40;99.90;;;;;;5052122;28;20016;-61
2023/01/11 03:06:30;;;;;;;2.17;1.98;;;6.40;99.90;;;;;;5051798;28;20100;-59
2023/01/11 03:09:14;;;;;;;2.17;1.27;;;6.50;99.90;;;;;;5050718;28;20025;-60
2023/01/11 03:15:15;;;;;;;1.55;1.45;;;6.50;99.90;;;;;;5051199;28;20519;-59
2023/01/11 03:17:57;;;;;;;2.35;1.27;;;6.60;99.90;;;;;;5029492;28;20025;-59
2023/01/11 03:20:37;;;;;;;2.00;1.63;;;6.60;99.90;;;;;;5049313;28;20021;-58
2023/01/11 03:23:02;;;;;;;3.47;1.95;;;6.70;99.90;;;;;;5049977;28;20028;-59
2023/01/11 03:25:39;;;;;;;1.90;1.60;;;6.70;99.90;;;;;;5051126;28;20021;-60
2023/01/11 03:28:33;;;;;;;5.53;1.52;;;6.70;99.90;;;;;;5046846;28;20167;-60
2023/01/11 03:31:14;;;;;;;2.70;2.15;;;6.80;99.90;;;;;;5047843;28;20028;-60
2023/01/11 03:34:04;;;;;;;2.15;1.70;;;6.80;99.90;;;;;;5033978;28;20029;-61
2023/01/11 03:36:37;;;;;;;1.98;1.42;;;6.80;99.90;;;;;;5073951;22;20053;-53
2023/01/11 03:39:32;;;;;;;2.08;1.70;;;6.80;99.90;;;;;;5050474;28;20400;-52
2023/01/11 03:42:01;;;;;;;1.77;1.50;;;6.90;99.90;;;;;;5045386;28;20021;-53
2023/01/11 03:44:32;;;;;;;1.30;1.20;;;6.90;99.90;;;;;;5051180;28;20040;-53
2023/01/11 03:47:03;;;;;;;4.07;1.40;;;7.00;99.90;;;;;;5045683;28;20044;-53
2023/01/11 03:49:35;;;;;;;1.50;1.40;;;6.90;99.90;;;;;;5050852;28;20503;-56
2023/01/11 03:52:02;;;;;;;1.45;1.23;;;6.90;99.90;;;;;;5050981;28;20036;-56
2023/01/11 03:54:29;;;;;;;2.22;1.40;;;6.90;99.90;;;;;;5050986;28;20047;-55
2023/01/11 03:57:01;;;;;;;1.67;1.33;;;7.00;99.90;;;;;;5051077;28;20021;-53
2023/01/11 03:59:26;;;;;;;1.83;1.52;;;7.00;99.90;;;;;;5049867;28;20104;-56
2023/01/11 04:01:53;;;;;;;2.10;1.83;;;7.00;99.90;;;;;;5031653;28;20465;-56
2023/01/11 04:04:19;;;;;;;1.55;1.30;;;7.00;99.90;;;;;;5049716;28;20481;-56
2023/01/11 04:06:45;;;;;;;1.30;1.15;;;7.10;99.90;;;;;;5050486;28;20036;-53
2023/01/11 04:09:10;;;;;;;1.60;1.50;;;7.00;99.90;;;;;;5049640;28;20694;-56
2023/01/11 04:11:36;;;;;;;1.60;1.50;;;7.10;99.90;;;;;;5046032;28;20087;-53
2023/01/11 04:14:01;;;;;;;2.33;1.58;;;7.10;99.90;;;;;;5044738;28;20021;-53
2023/01/11 04:16:27;;;;;;;3.17;1.52;;;7.10;99.90;;;;;;5044597;28;20148;-55
2023/01/11 04:18:52;;;;;;;1.63;1.45;;;7.10;99.90;;;;;;5051138;28;20021;-54
2023/01/11 04:21:18;;;;;;;1.67;1.30;;;7.10;99.90;;;;;;5050973;28;20013;-55
2023/01/11 04:23:43;;;;;;;1.20;1.10;;;7.20;99.90;;;;;;5050928;28;20075;-53
2023/01/11 04:26:09;;;;;;;2.53;1.10;;;7.10;99.90;;;;;;5050599;28;20029;-56
2023/01/11 04:28:35;;;;;;;1.95;1.38;;;7.20;99.90;;;;;;5050831;28;20108;-54
2023/01/11 04:31:00;;;;;;;3.08;1.30;;;7.10;99.90;;;;;;5050521;28;20474;-54
2023/01/11 04:33:26;;;;;;;1.70;1.30;;;7.10;99.90;;;;;;5050749;28;20013;-54
2023/01/11 04:35:51;;;;;;;2.30;1.23;;;7.10;99.90;;;;;;5032419;28;20024;-54
2023/01/11 04:38:17;;;;;;;1.20;1.10;;;7.10;99.90;;;;;;5049895;28;20504;-55
2023/01/11 04:40:43;;;;;;;1.40;1.20;;;7.10;99.90;;;;;;5050367;28;20024;-52
2023/01/11 04:43:08;;;;;;;1.17;1.08;;;7.20;99.90;;;;;;5047285;28;20029;-53
2023/01/11 04:45:34;;;;;;;1.30;1.17;;;7.20;99.90;;;;;;5027946;28;20040;-52
2023/01/11 04:48:00;;;;;;;1.40;1.13;;;7.20;99.90;;;;;;5046676;28;20029;-57
2023/01/11 04:50:26;;;;;;;0.75;0.75;;;7.10;99.90;;;;;;5049653;28;20021;-56
2023/01/11 04:52:52;;;;;;;1.45;1.20;;;7.20;99.90;;;;;;5045348;28;20309;-56
2023/01/11 04:55:17;;;;;;;1.10;0.98;;;7.20;99.90;;;;;;5042422;28;20667;-53
2023/01/11 04:57:44;;;;;;;2.80;1.40;;;7.20;99.90;;;;;;5039852;28;20146;-54
2023/01/11 05:00:10;;;;;;;1.38;1.08;;;7.30;99.90;;;;;;5050316;28;20017;-55
2023/01/11 05:02:37;;;;;;;2.22;1.45;;;7.30;99.90;;;;;;5043403;28;20924;-57
2023/01/11 05:05:03;;;;;;;1.75;1.50;;;7.30;99.90;;;;;;5044409;28;20065;-56
2023/01/11 05:07:29;;;;;;;1.02;1.02;;;7.30;99.90;;;;;;5041279;28;20037;-56
2023/01/11 05:09:54;;;;;;;2.42;1.48;;;7.30;99.90;;;;;;5042853;28;20035;-54
2023/01/11 05:12:20;;;;;;;1.48;1.38;;;7.40;99.90;;;;;;5037223;28;20037;-54
2023/01/11 05:14:45;;;;;;;1.80;1.42;;;7.40;99.90;;;;;;5046495;28;20033;-54
2023/01/11 05:17:15;;;;;;;1.90;1.50;;;7.40;99.90;;;;;;5049248;28;20051;-54
2023/01/11 05:19:41;;;;;;;1.83;1.35;;;7.40;99.90;;;;;;5049415;28;20056;-57
2023/01/11 05:22:07;;;;;;;1.10;1.00;;;7.40;99.90;;;;;;5049219;28;20065;-57
2023/01/11 05:24:32;;;;;;;1.40;1.10;;;7.40;99.90;;;;;;5049752;28;20028;-58
2023/01/11 05:26:58;;;;;;;1.58;1.20;;;7.40;99.90;;;;;;5050040;28;20028;-57
2023/01/11 05:29:24;;;;;;;1.35;1.10;;;7.40;99.90;;;;;;5049396;28;20610;-57
2023/01/11 05:31:49;;;;;;;1.35;1.08;;;7.50;99.90;;;;;;5049464;28;20480;-57
2023/01/11 05:34:16;;;;;;;2.00;1.27;;;7.50;99.90;;;;;;5049814;28;20404;-58
2023/01/11 05:36:43;;;;;;;1.42;1.13;;;7.50;99.90;;;;;;5027654;28;20025;-54
2023/01/11 05:39:11;;;;;;;1.67;1.20;;;7.50;99.90;;;;;;5049573;28;20476;-56
2023/01/11 05:41:36;;;;;;;1.60;1.20;;;7.50;99.90;;;;;;5049171;28;20037;-57
2023/01/11 05:46:47;;;;;;;1.20;1.10;;;7.50;99.90;;;;;;5043170;28;20451;-57
2023/01/11 05:49:13;;;;;;;0.85;0.85;;;7.60;99.90;;;;;;5048134;28;20104;-56
2023/01/11 05:51:39;;;;;;;2.13;1.30;;;7.60;99.90;;;;;;5048834;28;20107;-55
2023/01/11 05:54:09;;;;;;;2.75;1.55;;;7.70;99.90;;;;;;5049120;28;20108;-58
2023/01/11 05:56:34;;;;;;;1.00;1.00;;;7.70;99.90;;;;;;5014377;28;20485;-54
2023/01/11 05:59:01;;;;;;;1.20;1.00;;;7.70;99.90;;;;;;5049161;28;20031;-57
2023/01/11 06:01:26;;;;;;;1.25;1.08;;;7.70;99.90;;;;;;5049086;28;20393;-56
2023/01/11 06:03:52;;;;;;;1.77;1.20;;;7.70;99.90;;;;;;5049182;28;20041;-57
2023/01/11 06:06:18;;;;;;;1.23;1.13;;;7.70;99.90;;;;;;5048565;28;20071;-57
2023/01/11 06:08:44;;;;;;;2.05;1.05;;;7.70;99.90;;;;;;5049336;28;20483;-57
2023/01/11 06:11:10;;;;;;;1.33;1.10;;;7.80;99.90;;;;;;5049019;28;20063;-56
2023/01/11 06:13:35;;;;;;;1.10;1.00;;;7.80;99.90;;;;;;5048917;28;20086;-55
2023/01/11 06:16:06;;;;;;;1.17;1.10;;;7.80;99.90;;;;;;5047358;28;20025;-57
2023/01/11 06:18:34;;;;;;;1.00;0.90;;;7.80;99.90;;;;;;5049109;28;20025;-57
2023/01/11 06:21:00;;;;;;;0.80;0.80;;;7.80;99.90;;;;;;5048902;28;20029;-55
2023/01/11 06:23:27;;;;;;;0.90;0.90;;;7.80;99.90;;;;;;5048862;28;20025;-53
2023/01/11 06:25:53;;;;;;;1.30;1.00;;;7.80;99.90;;;;;;5048131;28;20108;-59
2023/01/11 06:28:19;;;;;;;1.67;1.58;;;7.80;99.90;;;;;;5050499;28;20243;-58
2023/01/11 06:30:51;;;;;;;0.95;0.90;;;7.80;99.90;;;;;;5052822;28;20021;-55
2023/01/11 06:33:17;;;;;;;1.25;1.15;;;7.90;99.90;;;;;;5053065;28;20033;-57
2023/01/11 06:35:45;;;;;;;2.50;1.15;;;7.90;99.90;;;;;;5052575;28;20036;-57
2023/01/11 06:38:12;;;;;;;1.45;1.23;;;7.90;99.90;;;;;;5052862;28;20035;-59
2023/01/11 06:40:39;;;;;;;1.63;1.52;;;7.90;99.90;;;;;;5052574;28;20037;-55
2023/01/11 06:43:06;;;;;;;1.35;1.17;;;8.00;99.90;;;;;;5051798;28;20028;-57
2023/01/11 06:45:32;;;;;;;1.95;1.30;;;8.00;99.90;;;;;;5051608;28;20098;-55
2023/01/11 06:47:58;;;;;;;1.50;1.35;;;8.00;99.90;;;;;;5052172;28;20484;-57
2023/01/11 06:50:24;;;;;;;1.30;1.20;;;8.00;99.90;;;;;;5052653;28;20025;-55
2023/01/11 06:52:54;;;;;;;1.50;1.40;;;8.00;99.90;;;;;;5052505;28;20098;-56
2023/01/11 06:55:21;;;;;;;1.50;1.40;;;8.00;99.90;;;;;;5034690;28;20025;-58
2023/01/11 06:57:47;;;;;;;2.33;1.70;;;8.00;99.90;;;;;;5051775;28;20044;-55
2023/01/11 07:00:13;;;;;;;3.38;2.42;;;8.10;99.90;;;;;;5052649;28;20025;-53
2023/01/11 07:02:38;;;;;;;2.28;2.08;;;8.10;99.90;;;;;;5034265;28;20055;-58
2023/01/11 07:05:04;;;;;;;2.15;1.95;;;8.10;99.90;;;;;;5052057;28;20078;-57
2023/01/11 07:07:30;;;;;;;4.57;2.13;;;8.10;99.90;;;;;;5033816;28;20041;-57
2023/01/11 07:09:55;;;;;;;2.20;2.00;;;8.10;99.90;;;;;;5050908;28;20450;-53
2023/01/11 07:12:21;;;;;;;2.80;1.88;;;8.10;99.90;;;;;;5052219;28;20079;-53
2023/01/11 07:14:46;;;;;;;2.38;2.00;;;8.20;99.90;;;;;;5051194;28;20412;-58
2023/01/11 07:17:12;;;;;;;2.38;2.20;;;8.20;99.90;;;;;;5051530;28;20035;-57
2023/01/11 07:19:37;;;;;;;3.20;2.63;;;8.20;99.90;;;;;;5051874;28;20114;-53
2023/01/11 07:22:03;;;;;;;2.53;2.33;;;8.20;99.90;;;;;;5052030;28;20073;-55
2023/01/11 07:24:28;;;;;;;2.28;2.10;;;8.20;99.90;;;;;;5051979;28;20032;-60
2023/01/11 07:26:55;;;;;;;2.53;2.15;;;8.20;99.90;;;;;;5051884;28;20021;-54
2023/01/11 07:29:21;;;;;;;3.83;2.45;;;8.30;99.90;;;;;;5051945;28;20028;-57
2023/01/11 07:31:46;;;;;;;2.63;2.42;;;8.30;99.90;;;;;;5052110;28;20025;-54
2023/01/11 07:34:12;;;;;;;2.83;2.63;;;8.30;99.90;;;;;;5051950;28;20087;-55
2023/01/11 07:36:38;;;;;;;3.42;3.13;;;8.30;99.90;;;;;;5051343;28;20104;-54
2023/01/11 07:39:05;;;;;;;3.38;3.08;;;8.30;99.90;;;;;;5051621;28;20028;-53
2023/01/11 07:44:15;;;;;;;3.35;3.05;;;8.30;99.90;;;;;;5050965;28;20520;-57
2023/01/11 07:46:40;;;;;;;3.97;3.10;;;8.40;99.90;;;;;;5051312;28;20029;-53
2023/01/11 07:49:06;;;;;;;4.85;3.58;;;8.40;99.90;;;;;;5033078;28;20036;-58
2023/01/11 07:51:31;;;;;;;5.63;3.60;;;8.40;99.90;;;;;;5051617;28;20041;-56
2023/01/11 07:54:01;;;;;;;3.13;2.92;;;8.40;99.90;;;;;;5051280;28;20090;-58
2023/01/11 07:56:27;;;;;;;4.15;3.75;;;8.40;99.90;;;;;;5051041;28;20033;-55
2023/01/11 07:58:53;;;;;;;3.72;3.42;;;8.40;99.90;;;;;;5051377;28;20048;-53
2023/01/11 08:01:18;;;;;;;4.07;3.67;;;8.40;99.90;;;;;;5050958;28;20056;-54
2023/01/11 08:03:44;;;;;;;4.10;3.40;;;8.40;99.90;;;;;;5051829;28;20116;-54
2023/01/11 08:06:09;;;;;;;4.10;3.70;;;8.40;99.90;;;;;;5050586;28;20075;-56
2023/01/11 08:08:35;;;;;;;3.88;3.58;;;8.40;99.90;;;;;;5051463;28;20029;-53
2023/01/11 08:16:29;;;;;;;3.53;3.22;;;8.50;99.90;;;;;;5049756;28;20090;-55
2023/01/11 08:18:54;;;;;;;3.58;3.10;;;8.50;99.90;;;;;;5033073;28;20020;-57
2023/01/11 08:21:20;;;;;;;4.25;3.78;;;8.50;99.90;;;;;;5051108;28;20075;-57
2023/01/11 08:23:46;;;;;;;4.93;3.75;;;8.50;99.90;;;;;;5051079;28;20092;-54
2023/01/11 08:26:15;;;;;;;4.63;3.53;;;8.50;99.90;;;;;;5050136;28;20398;-55
2023/01/11 08:28:42;;;;;;;4.32;3.92;;;8.50;99.90;;;;;;5033947;28;20017;-53
2023/01/11 08:31:08;;;;;;;4.63;4.22;;;8.50;99.90;;;;;;5028541;28;20036;-56
2023/01/11 08:33:34;;;;;;;4.10;3.72;;;8.60;99.90;;;;;;5049996;28;20029;-54
2023/01/11 08:36:04;;;;;;;4.35;3.95;;;8.50;99.90;;;;;;5050600;28;20043;-54
2023/01/11 08:38:30;;;;;;;4.28;3.88;;;8.60;99.90;;;;;;5050863;28;20029;-57
2023/01/11 08:40:56;;;;;;;3.70;3.40;;;8.60;99.90;;;;;;5050941;28;20025;-53
2023/01/11 08:43:22;;;;;;;5.57;4.13;;;8.60;99.90;;;;;;5050375;28;20021;-56
2023/01/11 08:45:51;;;;;;;11.40;8.52;;;8.60;99.90;;;;;;5050256;28;20024;-57
2023/01/11 08:48:18;;;;;;;4.20;3.80;;;8.60;99.90;;;;;;5049186;28;20070;-57
2023/01/11 08:50:43;;;;;;;3.90;3.50;;;8.60;99.90;;;;;;5049625;28;20025;-57
2023/01/11 08:53:10;;;;;;;3.72;3.42;;;8.60;99.90;;;;;;5050247;28;20036;-57
2023/01/11 08:55:36;;;;;;;2.80;2.50;;;8.60;99.90;;;;;;5031537;28;20112;-56
2023/01/11 08:58:01;;;;;;;3.10;2.60;;;8.60;99.90;;;;;;5049597;28;20043;-55
2023/01/11 09:00:27;;;;;;;2.55;2.03;;;8.60;99.90;;;;;;5049413;28;20087;-53
2023/01/11 09:02:52;;;;;;;7.15;2.05;;;8.60;99.90;;;;;;5049621;28;20029;-54
2023/01/11 09:05:18;;;;;;;1.95;1.70;;;8.70;99.90;;;;;;5049516;28;20032;-53
2023/01/11 09:07:43;;;;;;;5.38;2.25;;;8.70;99.90;;;;;;5049761;28;20060;-56
2023/01/11 09:10:10;;;;;;;2.97;1.90;;;8.70;99.90;;;;;;5026978;28;20033;-54
2023/01/11 09:12:35;;;;;;;2.65;1.45;;;8.70;99.90;;;;;;5048648;28;20108;-53
2023/01/11 09:15:01;;;;;;;3.25;2.08;;;8.70;99.90;;;;;;5045724;28;20602;-58
2023/01/11 09:17:27;;;;;;;3.60;1.60;;;8.70;99.90;;;;;;5029221;28;20025;-55
2023/01/11 09:19:52;;;;;;;3.38;2.05;;;8.60;99.90;;;;;;5049039;28;20021;-55
2023/01/11 09:22:18;;;;;;;4.47;1.90;;;8.60;99.90;;;;;;5048537;28;20104;-55
2023/01/11 09:24:44;;;;;;;3.63;1.90;;;8.60;99.90;;;;;;5048467;28;20021;-52
2023/01/11 09:27:10;;;;;;;4.22;2.00;;;8.60;99.90;;;;;;5048429;28;20055;-56
2023/01/11 09:29:37;;;;;;;3.47;1.90;;;8.70;99.90;;;;;;5047805;28;20720;-55
2023/01/11 09:32:03;;;;;;;4.40;2.40;;;8.70;99.90;;;;;;5024571;28;20036;-57
2023/01/11 09:34:28;;;;;;;4.35;2.00;;;8.70;99.90;;;;;;5048154;28;20025;-57
2023/01/11 09:36:56;;;;;;;3.20;2.10;;;8.60;99.90;;;;;;5070772;22;20682;-61
2023/01/11 09:39:25;;;;;;;3.28;1.75;;;8.70;99.90;;;;;;5046711;28;20591;-60
2023/01/11 09:42:36;;;;;;;3.55;1.83;;;8.70;99.90;;;;;;5029600;28;20024;-61
2023/01/11 09:45:19;;;;;;;2.42;1.70;;;8.70;99.90;;;;;;5040720;28;20068;-58
2023/01/11 09:48:29;;;;;;;4.40;1.85;;;8.70;99.90;;;;;;5045306;28;20040;-59
2023/01/11 09:50:56;;;;;;;3.03;2.05;;;8.70;99.90;;;;;;4983692;28;20090;-58
2023/01/11 09:53:33;;;;;;;2.42;2.10;;;8.70;99.90;;;;;;5048246;28;20024;-58
2023/01/11 09:56:03;;;;;;;2.63;1.98;;;8.70;99.90;;;;;;5029888;28;20044;-61
2023/01/11 09:58:52;;;;;;;3.45;1.90;;;8.80;99.90;;;;;;5048387;28;20403;-60
2023/01/11 10:01:41;;;;;;;5.43;2.20;;;8.70;99.90;;;;;;5029057;28;20124;-58
2023/01/11 10:04:27;;;;;;;5.22;2.00;;;8.70;99.90;;;;;;5048488;28;20021;-55
2023/01/11 10:07:18;;;;;;;3.67;2.00;;;8.80;99.90;;;;;;5023951;28;20021;-61
2023/01/11 10:10:04;;;;;;;1.95;1.75;;;8.80;99.90;;;;;;5044441;28;20025;-61
2023/01/11 10:12:41;;;;;;;3.38;1.95;;;8.80;99.90;;;;;;5048469;28;20017;-61
2023/01/11 10:15:30;;;;;;;4.35;1.63;;;8.80;99.90;;;;;;5047434;28;20029;-60
2023/01/11 10:18:32;;;;;;;2.72;2.17;;;8.80;99.90;;;;;;5041216;28;20017;-59
2023/01/11 10:21:15;;;;;;;3.42;2.22;;;8.90;99.90;;;;;;5044582;28;20435;-60
2023/01/11 10:23:53;;;;;;;2.70;2.00;;;8.90;99.90;;;;;;5047916;28;20015;-60
2023/01/11 10:26:31;;;;;;;4.90;2.60;;;8.90;99.90;;;;;;5029235;28;20029;-55
2023/01/11 10:40:17;;;;;;;4.57;2.17;;;9.00;99.90;;;;;;5047906;28;20032;-60
2023/01/11 10:43:07;;;;;;;5.28;2.53;;;9.00;99.90;;;;;;5041260;28;20036;-61
2023/01/11 10:45:42;;;;;;;3.38;2.25;;;9.10;99.90;;;;;;5035031;28;20432;-61
2023/01/11 10:48:41;;;;;;;5.07;2.55;;;9.10;99.90;;;;;;5042180;28;20029;-60
2023/01/11 10:51:52;;;;;;;5.07;1.98;;;9.10;99.90;;;;;;5039749;28;20022;-60
2023/01/11 10:54:32;;;;;;;5.70;2.10;;;9.10;99.90;;;;;;5024873;28;20074;-61
2023/01/11 10:57:29;;;;;;;3.40;1.40;;;9.10;99.90;;;;;;5039195;28;20413;-61
2023/01/11 11:00:35;;;;;;;7.72;2.22;;;9.10;99.90;;;;;;5026792;28;20083;-59
2023/01/11 11:03:29;;;;;;;4.47;1.85;;;9.00;99.90;;;;;;5035980;28;20057;-60
2023/01/11 11:06:07;;;;;;;2.50;1.63;;;9.10;99.90;;;;;;5046401;28;20401;-60
2023/01/11 11:08:45;;;;;;;2.85;1.83;;;9.00;99.90;;;;;;5040585;28;20460;-59
2023/01/11 11:11:51;;;;;;;2.78;1.20;;;9.10;99.90;;;;;;5009277;28;20021;-59
2023/01/11 11:14:21;;;;;;;3.92;1.75;;;9.10;99.90;;;;;;5037672;28;20029;-61
2023/01/11 11:16:52;;;;;;;4.10;1.48;;;9.10;99.90;;;;;;5043814;28;20036;-54
2023/01/11 11:19:24;;;;;;;4.38;1.65;;;9.10;99.90;;;;;;5049035;28;20038;-57
2023/01/11 11:21:51;;;;;;;3.78;1.65;;;9.10;99.90;;;;;;5045232;28;20025;-58
2023/01/11 11:24:38;;;;;;;3.20;1.33;;;9.10;99.90;;;;;;5030719;28;20112;-60
2023/01/11 11:27:18;;;;;;;4.93;1.40;;;9.20;99.90;;;;;;5046135;28;20032;-61
2023/01/11 11:29:52;;;;;;;7.13;1.88;;;9.20;99.90;;;;;;5047102;28;20033;-57
2023/01/11 11:32:30;;;;;;;4.35;1.50;;;9.20;99.90;;;;;;5048986;28;20021;-58
2023/01/11 11:34:56;;;;;;;7.45;1.48;;;9.20;99.90;;;;;;5032654;28;20057;-58
2023/01/11 11:37:34;;;;;;;4.05;1.48;;;9.20;99.90;;;;;;5050303;28;20025;-60
2023/01/11 11:40:00;;;;;;;5.03;1.70;;;9.20;99.90;;;;;;5050942;28;20021;-58
2023/01/11 11:42:27;;;;;;;4.10;1.33;;;9.20;99.90;;;;;;5050577;28;20021;-56
2023/01/11 11:45:08;;;;;;;5.10;1.58;;;9.20;99.90;;;;;;5049430;28;20040;-59
2023/01/11 11:47:35;;;;;;;4.82;1.48;;;9.20;99.90;;;;;;5049140;28;20026;-55
2023/01/11 11:50:38;;;;;;;2.00;1.38;;;9.20;99.90;;;;;;5033030;28;20032;-60
2023/01/11 11:53:04;;;;;;;4.35;1.70;;;9.20;99.90;;;;;;4951251;28;20494;-58
2023/01/11 11:55:32;;;;;;;4.13;1.70;;;9.20;99.90;;;;;;5034470;28;20364;-57
2023/01/11 11:58:04;;;;;;;4.68;1.80;;;9.20;99.90;;;;;;5050583;28;20480;-56
2023/01/11 12:00:43;;;;;;;5.90;1.77;;;9.20;99.90;;;;;;5032608;28;20033;-61
2023/01/11 12:03:18;;;;;;;4.95;1.38;;;9.20;99.90;;;;;;5048729;28;20534;-60
2023/01/11 12:06:04;;;;;;;3.78;1.58;;;9.20;99.90;;;;;;5042101;28;20019;-58
2023/01/11 12:08:33;;;;;;;6.78;1.45;;;9.20;99.90;;;;;;5029714;28;20021;-59
2023/01/11 12:11:01;;;;;;;7.63;1.70;;;9.20;99.90;;;;;;5050398;28;20140;-59
2023/01/11 12:13:33;;;;;;;3.53;1.67;;;9.20;99.90;;;;;;5050047;28;20092;-59
2023/01/11 12:16:19;;;;;;;6.85;1.50;;;9.10;99.90;;;;;;5048032;28;20017;-61
2023/01/11 12:18:44;;;;;;;7.55;2.45;;;9.10;99.90;;;;;;5046563;28;20024;-58
2023/01/11 12:21:19;;;;;;;8.38;1.70;;;9.10;99.90;;;;;;5050463;28;20021;-55
2023/01/11 12:23:45;;;;;;;5.47;1.63;;;9.10;99.90;;;;;;5045614;28;20477;-58
2023/01/11 12:26:20;;;;;;;3.97;1.30;;;9.10;99.90;;;;;;5048392;28;20042;-59
2023/01/11 12:28:52;;;;;;;4.25;1.48;;;9.10;99.90;;;;;;5043282;28;20104;-58
2023/01/11 12:31:42;;;;;;;5.95;1.85;;;9.10;99.90;;;;;;5046933;28;20059;-59
2023/01/11 12:34:55;;;;;;;6.65;1.90;;;9.10;99.90;;;;;;5049689;28;20499;-57
2023/01/11 12:37:58;;;;;;;3.95;2.10;;;9.10;99.90;;;;;;5029025;28;20098;-58
2023/01/11 12:40:50;;;;;;;6.97;2.30;;;9.10;99.90;;;;;;5049977;28;20025;-58
2023/01/11 12:44:00;;;;;;;6.47;1.67;;;9.10;99.90;;;;;;5043915;28;20527;-58
2023/01/11 12:46:30;;;;;;;4.93;1.70;;;9.10;99.90;;;;;;5007345;28;20040;-59
2023/01/11 12:49:20;;;;;;;8.85;3.45;;;9.10;99.90;;;;;;5049990;28;20021;-58
2023/01/11 12:52:22;;;;;;;7.07;1.92;;;9.10;99.90;;;;;;5047793;28;20090;-59
2023/01/11 12:55:01;;;;;;;4.18;1.80;;;9.10;99.90;;;;;;5030377;28;20124;-59
2023/01/11 12:58:07;;;;;;;6.03;1.60;;;9.10;99.90;;;;;;5049871;28;20123;-59
2023/01/11 13:00:56;;;;;;;8.48;2.58;;;9.10;99.90;;;;;;5003512;28;20525;-59
2023/01/11 13:03:49;;;;;;;7.43;2.83;;;9.00;99.90;;;;;;5049442;28;20092;-55
2023/01/11 13:06:33;;;;;;;8.20;2.00;;;9.00;99.90;;;;;;5049325;28;20013;-56
2023/01/11 13:09:06;;;;;;;5.13;1.98;;;9.00;99.90;;;;;;5044050;28;20017;-59
2023/01/11 13:11:47;;;;;;;10.98;2.63;;;9.00;99.90;;;;;;5049483;28;20025;-58
2023/01/11 13:14:47;;;;;;;4.32;2.13;;;9.00;99.90;;;;;;5049361;28;20024;-60
2023/01/11 13:17:31;;;;;;;3.65;1.98;;;9.00;99.90;;;;;;4986557;28;20036;-60
2023/01/11 13:20:05;;;;;;;4.88;2.13;;;9.00;99.90;;;;;;5044152;28;20027;-59
2023/01/11 13:22:36;;;;;;;5.10;2.10;;;9.00;99.90;;;;;;5049675;28;20029;-56
2023/01/11 13:25:14;;;;;;;7.25;2.50;;;9.00;99.90;;;;;;5031407;28;20500;-58
2023/01/11 13:27:42;;;;;;;8.27;2.13;;;9.00;99.90;;;;;;5031051;28;20025;-58
2023/01/11 13:30:12;;;;;;;4.10;2.28;;;9.10;99.90;;;;;;5049546;28;20046;-58
2023/01/11 13:32:41;;;;;;;4.63;2.20;;;9.10;99.90;;;;;;5048717;28;20028;-57
2023/01/11 13:35:28;;;;;;;10.82;3.08;;;9.20;99.90;;;;;;5048721;28;20094;-58
2023/01/11 13:38:14;;;;;;;6.85;2.45;;;9.30;99.90;;;;;;5048314;28;20106;-57
2023/01/11 13:40:54;;;;;;;6.38;1.73;;;9.30;99.90;;;;;;5049116;28;20020;-58
2023/01/11 13:43:37;;;;;;;9.57;2.50;;;9.30;99.90;;;;;;5048853;28;20031;-59
2023/01/11 13:46:15;;;;;;;7.15;2.10;;;9.20;99.90;;;;;;5048822;28;20028;-57
2023/01/11 13:48:53;;;;;;;9.52;2.58;;;9.20;99.90;;;;;;5048540;28;20025;-57
2023/01/11 13:51:37;;;;;;;7.85;2.45;;;9.20;99.90;;;;;;5048499;28;20060;-59
2023/01/11 13:54:33;;;;;;;7.57;1.83;;;9.10;99.90;;;;;;5049052;28;20759;-60
2023/01/11 13:57:12;;;;;;;6.38;2.25;;;9.00;99.90;;;;;;5043379;28;20029;-59
2023/01/11 13:59:46;;;;;;;7.57;2.25;;;8.90;99.90;;;;;;5047956;28;20043;-60
2023/01/11 14:02:38;;;;;;;10.98;2.03;;;8.80;99.90;;;;;;5048939;28;20021;-60
2023/01/11 14:05:06;;;;;;;3.85;1.70;;;8.80;99.90;;;;;;5032750;28;20037;-60